Time;durP1;ratioP1;P1;durP2;ratioP2;P2;SDS_P1;SDS_P2;PMS_P1;PMS_P2;Temp;Humidity;BMP_temperature;BMP_pressure;BME280_temperature;BME280_humidity;BME280_pressure;Samples;Min_cycle;Max_cycle;Signal;HPM_P1;HPM_P2
2023/05/30 00:00:23;;;;;;;6.92;2.50;;;;;;;15.85;45.26;100333.02;1783268;80;21025;-66
2023/05/30 00:02:51;;;;;;;4.80;2.65;;;;;;;15.88;45.14;100322.05;1782981;80;21024;-67
2023/05/30 00:05:21;;;;;;;4.37;2.58;;;;;;;15.85;45.09;100316.45;1783025;80;21056;-66
2023/05/30 00:07:51;;;;;;;4.35;2.45;;;;;;;15.80;45.14;100313.55;1783046;80;21236;-66
2023/05/30 00:10:21;;;;;;;5.12;2.85;;;;;;;15.76;45.26;100316.47;1783089;80;21718;-67
2023/05/30 00:12:50;;;;;;;5.58;2.70;;;;;;;15.78;45.48;100317.08;1783180;80;21405;-66
2023/05/30 00:15:19;;;;;;;6.37;2.90;;;;;;;15.80;45.56;100314.39;1752924;80;22027;-65
2023/05/30 00:17:47;;;;;;;6.40;2.67;;;;;;;15.86;45.51;100318.13;1783164;80;21051;-67
2023/05/30 00:20:17;;;;;;;6.33;2.50;;;;;;;15.88;45.45;100320.12;1783190;80;21053;-68
2023/05/30 00:22:46;;;;;;;4.67;2.58;;;;;;;15.89;45.57;100318.20;1783022;80;21024;-65
2023/05/30 00:25:20;;;;;;;8.53;2.87;;;;;;;15.90;45.59;100321.27;1782989;80;21039;-66
2023/05/30 00:27:48;;;;;;;5.28;2.60;;;;;;;15.91;45.53;100322.42;1783051;80;21456;-66
2023/05/30 00:30:18;;;;;;;6.50;2.92;;;;;;;15.89;45.50;100325.11;1783033;80;21012;-65
2023/05/30 00:32:46;;;;;;;5.47;2.92;;;;;;;15.85;45.49;100320.59;1782955;80;21076;-65
2023/05/30 00:35:15;;;;;;;6.53;2.72;;;;;;;15.83;45.62;100322.20;1783015;80;21020;-66
2023/05/30 00:37:44;;;;;;;4.25;2.70;;;;;;;15.80;45.72;100319.07;1783284;80;21045;-66
2023/05/30 00:40:13;;;;;;;4.60;2.80;;;;;;;15.79;45.77;100314.63;1783263;80;21033;-66
2023/05/30 00:42:42;;;;;;;4.85;2.95;;;;;;;15.77;45.77;100311.25;1783189;80;21052;-66
2023/05/30 00:45:11;;;;;;;5.78;2.87;;;;;;;15.73;45.81;100310.88;1782984;80;21526;-66
2023/05/30 00:47:42;;;;;;;6.12;2.72;;;;;;;15.68;45.93;100309.89;1783188;80;20993;-66
2023/05/30 00:50:11;;;;;;;6.17;2.60;;;;;;;15.63;46.18;100305.61;1753097;80;21518;-66
2023/05/30 00:52:40;;;;;;;5.90;2.77;;;;;;;15.60;46.35;100303.27;1753237;80;21472;-66
2023/05/30 00:55:10;;;;;;;5.72;3.00;;;;;;;15.59;46.47;100301.05;1782965;80;21506;-66
2023/05/30 00:57:39;;;;;;;4.65;2.80;;;;;;;15.61;46.55;100308.59;1783189;80;21021;-67
2023/05/30 01:00:12;;;;;;;4.92;2.92;;;;;;;15.60;46.60;100304.66;1783022;80;21009;-66
2023/05/30 01:02:43;;;;;;;5.97;2.90;;;;;;;15.55;46.69;100300.64;1782935;80;21055;-65
2023/05/30 01:05:14;;;;;;;7.12;2.75;;;;;;;15.50;46.63;100301.87;1783141;80;21013;-66
2023/05/30 01:07:48;;;;;;;3.75;2.80;;;;;;;15.51;46.79;100293.90;1783482;80;21052;-66
2023/05/30 01:10:17;;;;;;;4.17;2.40;;;;;;;15.57;46.77;100296.80;1783114;80;21060;-66
2023/05/30 01:13:11;;;;;;;5.08;2.98;;;;;;;15.59;46.67;100294.69;1783005;80;21023;-67
2023/05/30 01:16:01;;;;;;;5.60;2.90;;;;;;;15.53;46.64;100295.89;1783170;80;21020;-65
2023/05/30 01:18:50;;;;;;;4.22;3.00;;;;;;;15.45;46.76;100294.83;1782951;80;21071;-67
2023/05/30 01:21:20;;;;;;;5.37;3.10;;;;;;;15.41;46.90;100293.61;1782911;80;21044;-67
2023/05/30 01:24:22;;;;;;;5.80;3.45;;;;;;;15.37;47.00;100295.15;1783092;80;21060;-66
2023/05/30 01:27:26;;;;;;;6.78;3.47;;;;;;;15.35;47.04;100293.16;1782961;80;21043;-67
2023/05/30 01:29:56;;;;;;;5.90;3.40;;;;;;;15.30;47.02;100299.91;1783162;80;21056;-66
2023/05/30 01:32:25;;;;;;;10.25;4.08;;;;;;;15.26;47.17;100302.83;1782904;80;21084;-65
2023/05/30 01:35:00;;;;;;;7.30;3.47;;;;;;;15.22;47.33;100296.08;1753347;80;21495;-66
2023/05/30 01:37:29;;;;;;;7.47;3.80;;;;;;;15.21;47.48;100298.53;1783087;80;20996;-66
2023/05/30 01:39:59;;;;;;;12.70;4.50;;;;;;;15.18;47.62;100295.70;1783016;80;21510;-66
2023/05/30 01:42:29;;;;;;;8.03;4.25;;;;;;;15.19;47.69;100297.39;1783080;80;21032;-66
2023/05/30 01:45:09;;;;;;;5.50;4.53;;;;;;;15.28;47.59;100295.69;1783082;80;20989;-66
2023/05/30 01:47:54;;;;;;;8.20;4.75;;;;;;;15.35;47.51;100295.07;1782989;80;21483;-64
2023/05/30 01:50:28;;;;;;;7.05;4.60;;;;;;;15.33;47.55;100296.69;1764802;80;21068;-65
2023/05/30 01:53:00;;;;;;;6.22;4.28;;;;;;;15.30;47.50;100296.30;1783172;80;21063;-64
2023/05/30 01:55:30;;;;;;;9.48;4.25;;;;;;;15.24;47.55;100299.45;1783166;80;21600;-64
2023/05/30 01:57:59;;;;;;;7.97;4.10;;;;;;;15.20;47.51;100304.59;1783131;80;21020;-66
2023/05/30 02:00:30;;;;;;;5.55;3.35;;;;;;;15.20;47.46;100299.61;1783002;80;21447;-65
2023/05/30 02:03:00;;;;;;;6.10;3.60;;;;;;;15.21;47.42;100299.91;1783162;80;21029;-66
2023/05/30 02:05:28;;;;;;;5.53;3.50;;;;;;;15.21;47.37;100298.53;1783194;80;21052;-65
2023/05/30 02:07:57;;;;;;;6.40;3.45;;;;;;;15.20;47.45;100295.47;1783271;80;20989;-65
2023/05/30 02:10:26;;;;;;;6.72;3.65;;;;;;;15.17;47.53;100299.53;1783520;80;21024;-65
2023/05/30 02:12:56;;;;;;;6.85;3.55;;;;;;;15.13;47.59;100299.69;1783212;80;21031;-64
2023/05/30 02:15:25;;;;;;;6.80;3.70;;;;;;;15.11;47.76;100299.07;1783292;80;21043;-66
2023/05/30 02:17:54;;;;;;;5.92;3.40;;;;;;;15.06;47.85;100293.94;1783181;80;21071;-66
2023/05/30 02:20:23;;;;;;;7.42;4.50;;;;;;;15.04;47.90;100296.08;1783174;80;20980;-63
2023/05/30 02:22:52;;;;;;;7.80;4.67;;;;;;;15.06;47.80;100292.55;1783114;80;21000;-65
2023/05/30 02:25:21;;;;;;;10.60;4.75;;;;;;;15.07;47.82;100297.00;1783055;80;21079;-65
2023/05/30 02:27:50;;;;;;;6.72;4.22;;;;;;;15.08;47.82;100292.63;1783054;80;21028;-66
2023/05/30 02:30:20;;;;;;;11.70;4.60;;;;;;;15.10;47.78;100296.55;1753464;80;21047;-65
2023/05/30 02:32:49;;;;;;;9.20;4.58;;;;;;;15.11;47.76;100294.93;1782956;80;21150;-66
2023/05/30 02:35:20;;;;;;;7.47;4.08;;;;;;;15.13;47.70;100294.70;1782957;80;21315;-66
2023/05/30 02:37:49;;;;;;;10.38;3.60;;;;;;;15.18;47.50;100297.61;1783036;80;21092;-65
2023/05/30 02:40:18;;;;;;;4.58;3.12;;;;;;;15.20;47.38;100294.93;1783123;80;21152;-65
2023/05/30 02:42:47;;;;;;;6.15;3.17;;;;;;;15.21;47.21;100293.02;1753345;80;21023;-65
2023/05/30 02:45:16;;;;;;;6.67;3.47;;;;;;;15.22;47.08;100291.41;1783079;80;21476;-65
2023/05/30 02:47:45;;;;;;;7.90;3.33;;;;;;;15.26;47.05;100291.78;1783257;80;21023;-64
2023/05/30 02:50:15;;;;;;;7.92;3.70;;;;;;;15.30;46.87;100295.77;1783260;80;21016;-65
2023/05/30 02:52:44;;;;;;;13.60;4.25;;;;;;;15.30;46.93;100292.16;1783063;80;21024;-65
2023/05/30 02:55:14;;;;;;;7.12;3.27;;;;;;;15.29;46.82;100290.48;1783150;80;21091;-66
2023/05/30 02:57:48;;;;;;;5.83;2.60;;;;;;;15.30;46.94;100287.48;1779603;80;21075;-66
2023/05/30 03:00:22;;;;;;;8.10;3.25;;;;;;;15.33;46.88;100296.69;1781772;80;21476;-65
2023/05/30 03:02:57;;;;;;;5.30;2.90;;;;;;;15.36;46.79;100292.08;1781265;80;21013;-66
2023/05/30 03:05:28;;;;;;;12.35;2.90;;;;;;;15.41;46.72;100293.61;1783003;80;21091;-66
2023/05/30 03:07:57;;;;;;;6.50;2.92;;;;;;;15.44;46.71;100294.52;1783416;80;21024;-65
2023/05/30 03:10:26;;;;;;;6.83;3.25;;;;;;;15.48;46.76;100305.95;1783326;80;21052;-65
2023/05/30 03:12:56;;;;;;;6.97;3.85;;;;;;;15.48;46.75;100304.03;1783149;80;21084;-65
2023/05/30 03:15:26;;;;;;;8.63;5.15;;;;;;;15.50;46.55;100304.64;1783179;80;21072;-65
2023/05/30 03:17:57;;;;;;;10.90;5.87;;;;;;;15.54;46.59;100300.88;1782973;80;21060;-65
2023/05/30 03:20:28;;;;;;;14.60;6.55;;;;;;;15.61;46.48;100299.47;1783280;80;21008;-66
2023/05/30 03:22:58;;;;;;;9.10;5.72;;;;;;;15.65;46.30;100299.31;1782942;80;21052;-65
2023/05/30 03:25:27;;;;;;;7.62;5.47;;;;;;;15.67;46.44;100299.38;1783190;80;21067;-65
2023/05/30 03:27:56;;;;;;;8.55;4.60;;;;;;;15.70;46.47;100303.59;1783384;80;21024;-65
2023/05/30 03:30:26;;;;;;;10.23;4.58;;;;;;;15.74;46.28;100297.91;1783178;80;21027;-65
2023/05/30 03:32:58;;;;;;;6.08;3.87;;;;;;;15.78;46.27;100299.97;1782953;80;21054;-64
2023/05/30 03:35:27;;;;;;;6.75;3.30;;;;;;;15.83;46.03;100304.25;1783227;80;21023;-64
2023/05/30 03:37:56;;;;;;;7.92;3.05;;;;;;;15.86;46.14;100297.41;1783211;80;21044;-65
2023/05/30 03:40:24;;;;;;;6.60;2.92;;;;;;;15.90;46.03;100297.78;1783148;80;21048;-65
2023/05/30 03:42:55;;;;;;;7.05;2.85;;;;;;;15.96;45.94;100292.16;1783107;80;21051;-65
2023/05/30 03:45:23;;;;;;;4.12;2.40;;;;;;;16.04;45.69;100292.36;1753700;80;21120;-66
2023/05/30 03:47:52;;;;;;;7.33;2.50;;;;;;;16.09;45.97;100294.72;1783225;80;20976;-65
2023/05/30 03:50:21;;;;;;;6.00;2.30;;;;;;;16.14;45.75;100297.61;1782971;80;21043;-66
2023/05/30 03:52:50;;;;;;;5.90;2.30;;;;;;;16.21;45.59;100291.98;1783258;80;21067;-66
2023/05/30 03:55:19;;;;;;;8.75;2.10;;;;;;;16.27;45.19;100294.37;1783023;80;21118;-66
2023/05/30 03:57:49;;;;;;;7.67;2.17;;;;;;;16.34;44.94;100290.95;1782901;80;21036;-64
2023/05/30 04:00:19;;;;;;;5.05;2.05;;;;;;;16.40;44.64;100298.30;1783020;80;21476;-63
2023/05/30 04:02:48;;;;;;;6.15;2.10;;;;;;;16.47;44.35;100294.87;1783042;80;21071;-66
2023/05/30 04:05:18;;;;;;;3.47;1.92;;;;;;;16.51;44.22;100301.61;1782872;80;21465;-65
2023/05/30 04:07:48;;;;;;;7.33;2.22;;;;;;;16.59;43.81;100297.65;1783069;80;21103;-66
2023/05/30 04:10:16;;;;;;;8.08;2.00;;;;;;;16.66;43.00;100301.17;1782844;80;21570;-64
2023/05/30 04:12:47;;;;;;;2.42;1.67;;;;;;;16.76;42.77;100298.10;1782957;80;21439;-66
2023/05/30 04:15:18;;;;;;;6.92;1.85;;;;;;;16.87;42.25;100302.49;1782985;80;20988;-65
2023/05/30 04:17:46;;;;;;;5.65;1.85;;;;;;;16.97;41.96;100303.59;1782976;80;21480;-65
2023/05/30 04:20:17;;;;;;;4.17;1.60;;;;;;;17.06;41.96;100297.98;1783113;80;21028;-66
2023/05/30 04:22:47;;;;;;;3.87;1.70;;;;;;;17.15;41.55;100298.45;1783016;80;21240;-65
2023/05/30 04:25:17;;;;;;;3.77;1.90;;;;;;;17.24;41.45;100303.92;1783296;80;21031;-64
2023/05/30 04:27:47;;;;;;;5.37;1.80;;;;;;;17.31;41.23;100303.23;1782706;80;21078;-64
2023/05/30 04:30:19;;;;;;;5.90;2.40;;;;;;;17.37;41.42;100299.49;1783048;80;21048;-65
2023/05/30 04:32:49;;;;;;;10.95;3.42;;;;;;;17.43;41.02;100297.67;1782837;79;21040;-66
2023/05/30 04:35:18;;;;;;;3.83;1.98;;;;;;;17.49;41.01;100298.08;1782921;80;21004;-66
2023/05/30 04:37:48;;;;;;;3.47;1.65;;;;;;;17.58;40.43;100303.56;1783058;80;21032;-65
2023/05/30 04:40:25;;;;;;;3.25;2.00;;;;;;;17.66;40.45;100299.55;1782904;80;21036;-67
2023/05/30 04:42:55;;;;;;;4.80;2.08;;;;;;;17.71;40.06;100301.91;1782856;80;21016;-66
2023/05/30 04:45:28;;;;;;;4.42;1.87;;;;;;;17.78;40.21;100302.31;1782752;80;21521;-64
2023/05/30 04:47:55;;;;;;;7.37;2.42;;;;;;;17.83;40.19;100301.02;1782690;80;20997;-66
2023/05/30 04:50:24;;;;;;;3.60;1.90;;;;;;;17.91;39.85;100308.39;1782904;80;21012;-65
2023/05/30 04:52:53;;;;;;;5.30;2.00;;;;;;;18.00;39.77;100311.06;1782730;80;21115;-66
2023/05/30 04:55:23;;;;;;;10.13;6.80;;;;;;;18.11;39.38;100307.09;1782872;80;21103;-65
2023/05/30 04:57:52;;;;;;;6.70;3.10;;;;;;;18.24;39.53;100311.80;1782939;80;21111;-65
2023/05/30 05:00:22;;;;;;;5.67;2.42;;;;;;;18.43;39.45;100301.86;1782882;80;21541;-65
2023/05/30 05:02:51;;;;;;;7.03;2.25;;;;;;;18.67;39.11;100301.46;1782908;80;21064;-66
2023/05/30 05:05:20;;;;;;;9.75;2.15;;;;;;;18.97;38.71;100303.05;1783232;80;21259;-63
2023/05/30 05:07:49;;;;;;;10.30;2.55;;;;;;;19.32;37.93;100305.48;1782979;80;21067;-65
2023/05/30 05:10:18;;;;;;;7.45;2.33;;;;;;;19.65;37.28;100307.35;1782913;80;20980;-66
2023/05/30 05:12:47;;;;;;;2.83;1.95;;;;;;;19.95;36.85;100304.91;1782875;80;21040;-65
2023/05/30 05:15:17;;;;;;;5.37;2.35;;;;;;;20.28;36.26;100309.16;1782900;80;21059;-65
2023/05/30 05:17:46;;;;;;;10.38;2.50;;;;;;;20.58;35.44;100315.02;1782991;80;21109;-64
2023/05/30 05:20:15;;;;;;;3.15;2.10;;;;;;;20.83;35.13;100311.07;1782903;80;21020;-66
2023/05/30 05:22:45;;;;;;;5.85;2.22;;;;;;;21.08;34.61;100324.33;1782868;80;21087;-66
2023/05/30 05:25:13;;;;;;;5.87;2.20;;;;;;;21.34;33.65;100320.33;1783083;80;21086;-65
2023/05/30 05:27:43;;;;;;;5.78;2.20;;;;;;;21.44;33.36;100324.56;1782920;80;21055;-65
2023/05/30 05:30:13;;;;;;;6.08;1.75;;;;;;;21.60;32.98;100319.37;1783122;80;21444;-65
2023/05/30 05:32:42;;;;;;;3.15;1.80;;;;;;;21.75;32.64;100316.64;1782781;80;21036;-65
2023/05/30 05:35:12;;;;;;;5.60;2.77;;;;;;;21.99;32.00;100318.37;1783079;80;21060;-64
2023/05/30 05:37:42;;;;;;;3.67;1.85;;;;;;;22.17;31.88;100317.64;1782949;80;21511;-64
2023/05/30 05:40:13;;;;;;;4.58;1.95;;;;;;;22.28;32.13;100314.59;1783236;80;21056;-66
2023/05/30 05:42:43;;;;;;;27.42;4.25;;;;;;;22.48;31.78;100312.93;1783234;80;21024;-64
2023/05/30 05:45:12;;;;;;;7.00;2.12;;;;;;;22.59;31.88;100313.20;1783019;80;21028;-64
2023/05/30 05:47:41;;;;;;;12.33;2.45;;;;;;;22.73;31.77;100319.34;1783046;80;21091;-64
2023/05/30 05:50:10;;;;;;;7.30;2.77;;;;;;;22.88;31.42;100321.36;1782893;80;21035;-65
2023/05/30 05:52:40;;;;;;;9.43;2.65;;;;;;;22.98;31.26;100314.36;1783113;80;21044;-64
2023/05/30 05:55:09;;;;;;;8.50;2.33;;;;;;;23.17;31.22;100310.97;1782879;80;21072;-66
2023/05/30 05:57:39;;;;;;;4.53;2.25;;;;;;;23.36;30.63;100315.66;1782914;80;21044;-65
2023/05/30 06:00:09;;;;;;;5.22;2.20;;;;;;;23.50;30.92;100303.89;1783065;80;21028;-65
2023/05/30 06:02:43;;;;;;;13.03;3.20;;;;;;;23.73;30.71;100316.42;1782901;80;21128;-66
2023/05/30 06:05:13;;;;;;;8.10;3.17;;;;;;;23.98;30.36;100321.32;1783133;80;21077;-65
2023/05/30 06:07:42;;;;;;;5.45;2.02;;;;;;;24.15;30.02;100315.37;1783101;80;21100;-66
2023/05/30 06:10:11;;;;;;;2.92;2.00;;;;;;;24.26;29.82;100323.97;1783119;80;21012;-66
2023/05/30 06:12:40;;;;;;;6.55;2.65;;;;;;;24.39;29.63;100311.87;1783167;80;21056;-67
2023/05/30 06:15:12;;;;;;;5.03;2.40;;;;;;;24.54;29.60;100313.99;1783047;80;21043;-66
2023/05/30 06:17:41;;;;;;;5.83;2.35;;;;;;;24.66;29.35;100313.62;1783002;80;21145;-65
2023/05/30 06:20:11;;;;;;;4.75;2.25;;;;;;;24.69;29.18;100322.84;1783044;80;21048;-65
2023/05/30 06:22:40;;;;;;;5.58;3.00;;;;;;;24.68;29.40;100314.72;1783251;80;21024;-66
2023/05/30 06:25:09;;;;;;;7.50;3.05;;;;;;;24.89;29.47;100326.05;1783328;80;21075;-66
2023/05/30 06:27:41;;;;;;;6.08;2.00;;;;;;;25.13;28.99;100322.75;1782964;80;21088;-65
2023/05/30 06:30:11;;;;;;;6.97;2.72;;;;;;;25.16;29.13;100317.12;1783148;80;21043;-65
2023/05/30 06:32:41;;;;;;;6.40;2.55;;;;;;;25.29;28.96;100313.61;1779188;79;21035;-64
2023/05/30 06:35:11;;;;;;;6.58;2.90;;;;;;;25.42;28.74;100308.72;1739081;81;21508;-64
2023/05/30 06:37:41;;;;;;;17.87;3.67;;;;;;;25.49;28.94;100310.59;1739197;82;21119;-65
2023/05/30 06:40:11;;;;;;;7.75;2.90;;;;;;;25.72;28.87;100314.55;1739128;82;21462;-67
2023/05/30 06:42:40;;;;;;;37.20;6.70;;;;;;;25.85;28.53;100315.78;1739367;81;21057;-66
2023/05/30 06:45:09;;;;;;;25.88;5.30;;;;;;;25.96;28.25;100311.70;1739127;81;21089;-65
2023/05/30 06:47:40;;;;;;;12.23;3.75;;;;;;;26.12;27.86;100316.56;1720605;82;21078;-65
2023/05/30 06:50:10;;;;;;;4.42;2.45;;;;;;;26.13;28.08;100319.06;1739241;81;21493;-66
2023/05/30 06:52:39;;;;;;;5.10;2.90;;;;;;;26.24;27.46;100312.73;1739274;81;21062;-65
2023/05/30 06:55:09;;;;;;;4.62;2.77;;;;;;;26.38;26.97;100313.66;1739147;82;21155;-66
2023/05/30 06:57:39;;;;;;;9.08;2.50;;;;;;;26.52;27.01;100298.27;1739209;82;21480;-64
2023/05/30 07:00:09;;;;;;;8.55;2.85;;;;;;;26.52;27.01;100298.27;1739190;81;21034;-65
2023/05/30 07:02:39;;;;;;;4.62;2.27;;;;;;;26.63;26.50;100299.76;1739056;82;21002;-65
2023/05/30 07:05:09;;;;;;;5.70;2.50;;;;;;;26.59;26.72;100302.09;1739037;81;21043;-65
2023/05/30 07:07:39;;;;;;;5.37;2.55;;;;;;;26.56;26.81;100296.51;1739339;81;21073;-65
2023/05/30 07:10:09;;;;;;;6.05;2.45;;;;;;;26.69;26.56;100299.97;1739390;81;21054;-65
2023/05/30 07:12:39;;;;;;;6.80;2.70;;;;;;;26.87;26.48;100296.01;1720592;82;21046;-64
2023/05/30 07:15:09;;;;;;;6.78;2.60;;;;;;;27.01;26.38;100294.09;1720681;82;21010;-65
2023/05/30 07:17:39;;;;;;;5.95;2.10;;;;;;;26.99;26.39;100293.56;1738958;81;21070;-64
2023/05/30 07:20:09;;;;;;;6.40;2.27;;;;;;;27.14;25.79;100280.61;1739510;82;21069;-65
2023/05/30 07:22:39;;;;;;;4.78;2.08;;;;;;;27.24;25.36;100277.60;1738997;81;21062;-66
2023/05/30 07:25:11;;;;;;;3.72;2.40;;;;;;;27.33;25.36;100277.73;1739227;81;21050;-66
2023/05/30 07:27:40;;;;;;;2.75;1.75;;;;;;;27.59;24.52;100280.86;1739225;81;21002;-65
2023/05/30 07:30:09;;;;;;;5.20;1.95;;;;;;;27.68;23.97;100277.02;1739258;81;21045;-64
2023/05/30 07:32:39;;;;;;;11.95;2.72;;;;;;;27.69;24.18;100283.48;1739332;81;20994;-64
2023/05/30 07:35:09;;;;;;;8.73;2.35;;;;;;;27.74;24.04;100281.97;1782154;80;21476;-64
2023/05/30 07:37:38;;;;;;;3.45;1.80;;;;;;;27.85;24.07;100285.39;1783076;80;21008;-66
2023/05/30 07:40:08;;;;;;;5.22;2.12;;;;;;;27.99;24.09;100275.80;1783310;80;21023;-66
2023/05/30 07:42:38;;;;;;;5.25;1.98;;;;;;;28.01;23.49;100272.66;1783044;80;21000;-66
2023/05/30 07:45:09;;;;;;;2.85;2.00;;;;;;;28.03;23.84;100275.98;1783268;80;21059;-65
2023/05/30 07:47:38;;;;;;;6.65;2.02;;;;;;;28.15;23.77;100272.04;1783252;80;21024;-65
2023/05/30 07:50:09;;;;;;;5.80;1.90;;;;;;;28.40;22.99;100258.77;1783206;80;21091;-65
2023/05/30 07:52:38;;;;;;;5.03;1.80;;;;;;;28.32;23.09;100265.75;1751823;80;21082;-68
2023/05/30 07:55:08;;;;;;;5.53;2.35;;;;;;;28.18;23.15;100274.80;1770067;79;21075;-66
2023/05/30 07:57:38;;;;;;;5.55;2.00;;;;;;;28.19;23.00;100272.23;1787979;80;21057;-66
2023/05/30 08:00:08;;;;;;;4.00;1.98;;;;;;;28.09;23.35;100266.27;1776931;81;21031;-66
2023/05/30 08:02:41;;;;;;;5.60;2.37;;;;;;;28.23;23.21;100269.04;1750922;80;21026;-67
2023/05/30 08:05:10;;;;;;;6.47;2.10;;;;;;;28.43;23.17;100269.98;1786051;79;21011;-63
2023/05/30 08:07:39;;;;;;;6.80;1.92;;;;;;;28.65;23.23;100267.76;1786186;80;21018;-68
2023/05/30 08:10:09;;;;;;;8.55;1.75;;;;;;;28.85;22.56;100272.06;1786081;80;21049;-66
2023/05/30 08:12:39;;;;;;;3.47;1.87;;;;;;;28.87;22.44;100263.53;1788961;80;21427;-67
2023/05/30 08:15:10;;;;;;;3.12;1.70;;;;;;;28.89;22.55;100267.44;1793344;80;21023;-67
2023/05/30 08:17:40;;;;;;;2.95;1.70;;;;;;;29.00;22.49;100272.48;1793392;79;21062;-66
2023/05/30 08:20:12;;;;;;;3.67;1.90;;;;;;;29.09;22.13;100259.83;1793158;80;21034;-67
2023/05/30 08:22:42;;;;;;;2.52;1.70;;;;;;;29.25;21.92;100263.87;1774464;80;21090;-66
2023/05/30 08:25:12;;;;;;;5.62;1.92;;;;;;;29.15;21.94;100266.99;1793386;80;21434;-67
2023/05/30 08:27:42;;;;;;;5.58;2.02;;;;;;;29.07;22.23;100269.19;1792861;80;21002;-66
2023/05/30 08:30:12;;;;;;;5.58;1.87;;;;;;;29.14;22.07;100258.84;1755477;80;21034;-66
2023/05/30 08:32:43;;;;;;;2.83;2.00;;;;;;;29.10;21.68;100279.00;1785611;80;21093;-65
2023/05/30 08:35:13;;;;;;;6.17;1.90;;;;;;;29.05;21.68;100264.45;1785593;80;21077;-68
2023/05/30 08:37:43;;;;;;;3.37;1.65;;;;;;;29.04;21.63;100262.79;1785622;79;21060;-67
2023/05/30 08:40:18;;;;;;;4.08;1.72;;;;;;;29.04;21.87;100279.72;1785756;80;21022;-69
2023/05/30 08:42:48;;;;;;;7.20;2.10;;;;;;;29.09;21.91;100254.19;1785758;80;21429;-70
2023/05/30 08:45:19;;;;;;;6.70;2.00;;;;;;;29.28;21.51;100253.38;1755885;80;21080;-67
2023/05/30 08:47:52;;;;;;;5.12;1.92;;;;;;;29.30;21.46;100243.17;1785558;80;21022;-69
2023/05/30 08:50:23;;;;;;;5.62;2.10;;;;;;;29.26;21.90;100243.55;1785551;79;21442;-68
2023/05/30 08:52:53;;;;;;;2.55;1.67;;;;;;;29.31;21.46;100245.67;1785790;80;21018;-69
2023/05/30 08:55:27;;;;;;;2.58;1.70;;;;;;;29.31;21.43;100240.03;1785548;80;21050;-68
2023/05/30 08:58:29;;;;;;;6.33;2.15;;;;;;;29.35;21.53;100243.02;1785530;80;21086;-68
2023/05/30 09:00:57;;;;;;;4.15;1.85;;;;;;;29.49;21.15;100240.94;1785548;80;21435;-69
2023/05/30 09:03:27;;;;;;;4.22;1.90;;;;;;;29.35;21.17;100245.84;1743160;80;21006;-68
2023/05/30 09:05:56;;;;;;;15.20;9.73;;;;;;;29.21;21.25;100245.10;1699845;83;21137;-67
2023/05/30 09:08:25;;;;;;;3.27;2.12;;;;;;;29.01;21.17;100241.70;1730320;83;21041;-66
2023/05/30 09:10:54;;;;;;;3.05;1.87;;;;;;;28.77;21.58;100240.37;1699672;83;21148;-68
2023/05/30 09:13:24;;;;;;;4.80;1.80;;;;;;;28.53;21.67;100233.65;1729728;83;21046;-69
2023/05/30 09:15:54;;;;;;;4.42;1.80;;;;;;;28.26;22.17;100231.80;1729821;81;21045;-68
2023/05/30 09:18:23;;;;;;;7.03;1.80;;;;;;;28.05;22.13;100237.91;1729628;81;21484;-69
2023/05/30 09:20:51;;;;;;;5.45;2.70;;;;;;;27.82;22.34;100228.30;1729913;83;21521;-67
2023/05/30 09:23:21;;;;;;;3.60;1.87;;;;;;;27.71;22.61;100233.33;1729902;83;21042;-67
2023/05/30 09:25:51;;;;;;;4.15;2.30;;;;;;;27.60;22.87;100229.04;1729918;83;21021;-68
2023/05/30 09:28:28;;;;;;;5.62;3.20;;;;;;;27.53;23.23;100223.00;1700140;83;21486;-68
2023/05/30 09:31:00;;;;;;;6.92;2.10;;;;;;;27.50;23.07;100223.63;1729781;83;21090;-67
2023/05/30 09:33:48;;;;;;;3.58;1.70;;;;;;;27.46;23.35;100227.66;1729759;82;21026;-68
2023/05/30 09:36:19;;;;;;;;;;;;;;;27.43;23.10;100226.30;1701806;83;21532;-68
2023/05/30 09:39:03;;;;;;;1.90;1.70;;;;;;;27.32;23.08;100228.23;1724990;83;20194;-70
2023/05/30 09:41:33;;;;;;;4.33;1.65;;;;;;;27.10;23.26;100227.53;1725393;83;21375;-68
2023/05/30 09:44:09;;;;;;;7.05;2.02;;;;;;;26.73;24.40;100234.95;1725434;83;21110;-69
2023/05/30 09:46:37;;;;;;;4.13;2.13;;;;;;;26.73;24.40;100234.95;1676348;83;21030;-69
2023/05/30 09:49:12;;;;;;;6.08;1.80;;;;;;;26.74;24.11;100233.81;1676074;83;21552;-68
2023/05/30 09:51:42;;;;;;;3.70;1.90;;;;;;;26.72;24.00;100223.45;1725043;83;21034;-67
2023/05/30 09:54:14;;;;;;;4.65;2.08;;;;;;;26.73;24.20;100218.09;1725273;82;21351;-68
2023/05/30 09:56:43;;;;;;;8.98;2.90;;;;;;;26.79;24.26;100218.26;1725387;83;21524;-68
2023/05/30 09:59:13;;;;;;;3.65;1.82;;;;;;;26.84;24.12;100222.38;1725498;83;21085;-69
2023/05/30 10:01:47;;;;;;;5.45;2.40;;;;;;;26.90;24.18;100223.11;1727523;81;21038;-69
2023/05/30 10:04:23;;;;;;;4.05;1.80;;;;;;;26.92;23.94;100219.42;1767229;81;21045;-69
2023/05/30 10:06:54;;;;;;;3.92;2.05;;;;;;;26.94;23.59;100218.53;1767239;81;21096;-68
2023/05/30 10:09:24;;;;;;;5.25;2.00;;;;;;;26.95;23.71;100212.34;1767071;81;21104;-68
2023/05/30 10:11:53;;;;;;;5.60;2.40;;;;;;;26.95;23.48;100213.17;1766929;81;21080;-68
2023/05/30 10:14:22;;;;;;;3.98;1.80;;;;;;;26.90;23.86;100211.03;1766974;81;21033;-67
2023/05/30 10:17:05;;;;;;;3.10;1.80;;;;;;;26.85;23.54;100206.34;1739611;81;21049;-69
2023/05/30 10:19:46;;;;;;;3.22;1.85;;;;;;;26.74;23.68;100204.30;1766973;81;21049;-68
2023/05/30 10:22:17;;;;;;;9.90;2.40;;;;;;;26.67;24.01;100199.66;1767083;81;21485;-66
2023/05/30 10:24:48;;;;;;;3.08;2.20;;;;;;;26.57;24.24;100198.41;1739897;81;21092;-67
2023/05/30 10:27:22;;;;;;;8.25;2.52;;;;;;;26.53;24.45;100201.00;1766834;81;21010;-67
2023/05/30 10:30:06;;;;;;;4.22;1.90;;;;;;;26.49;24.79;100206.14;1767114;81;21507;-69
2023/05/30 10:32:42;;;;;;;4.83;2.00;;;;;;;26.40;24.03;100198.98;1765838;81;21018;-69
2023/05/30 10:35:15;;;;;;;5.05;2.10;;;;;;;26.27;24.15;100190.49;1772821;80;21105;-68
2023/05/30 10:37:43;;;;;;;5.35;2.10;;;;;;;26.18;24.45;100192.59;1776965;80;21082;-70
2023/05/30 10:40:37;;;;;;;4.60;2.08;;;;;;;26.11;24.54;100186.53;1776922;80;21066;-69
2023/05/30 10:43:44;;;;;;;5.17;2.17;;;;;;;26.06;24.56;100183.81;1776893;81;21043;-67
2023/05/30 10:46:33;;;;;;;2.25;1.65;;;;;;;25.95;24.86;100183.69;1776936;80;21020;-67
2023/05/30 10:49:06;;;;;;;3.85;1.90;;;;;;;26.02;24.80;100177.71;1776871;81;21058;-67
2023/05/30 10:52:07;;;;;;;3.25;2.05;;;;;;;25.99;24.63;100179.13;1747644;81;21900;-68
2023/05/30 10:54:37;;;;;;;3.65;2.12;;;;;;;25.95;24.59;100189.30;1776835;81;21055;-70
2023/05/30 10:57:26;;;;;;;3.77;1.77;;;;;;;25.94;24.74;100185.39;1776689;80;21439;-67
2023/05/30 11:00:09;;;;;;;4.92;2.00;;;;;;;25.90;24.94;100178.16;1777012;80;21058;-68
2023/05/30 11:02:37;;;;;;;6.20;2.30;;;;;;;25.87;24.85;100176.78;1752271;80;21439;-68
2023/05/30 11:05:09;;;;;;;3.75;1.87;;;;;;;25.88;25.10;100163.59;1757971;80;21630;-68
2023/05/30 11:07:41;;;;;;;4.17;1.90;;;;;;;25.93;24.78;100173.33;1785563;80;21089;-68
2023/05/30 11:10:12;;;;;;;3.87;2.02;;;;;;;25.91;24.92;100172.23;1785916;80;20979;-68
2023/05/30 11:12:48;;;;;;;4.58;2.00;;;;;;;25.88;24.94;100172.84;1785878;80;21050;-68
2023/05/30 11:15:17;;;;;;;5.55;2.47;;;;;;;25.79;24.66;100161.20;1785411;80;21054;-69
2023/05/30 11:17:46;;;;;;;2.47;1.82;;;;;;;25.64;25.02;100166.45;1785823;80;21057;-66
2023/05/30 11:20:16;;;;;;;6.15;2.10;;;;;;;25.64;24.81;100158.03;1785740;80;21030;-67
2023/05/30 11:23:05;;;;;;;2.60;1.90;;;;;;;25.62;24.73;100165.09;1785970;79;21423;-68
2023/05/30 11:25:34;;;;;;;4.10;2.30;;;;;;;25.59;24.84;100160.34;1770962;79;21100;-66
2023/05/30 11:28:12;;;;;;;3.08;2.10;;;;;;;25.62;25.16;100160.88;1785755;80;21077;-68
2023/05/30 11:30:47;;;;;;;2.75;1.92;;;;;;;25.70;25.25;100155.45;1785888;80;21694;-68
2023/05/30 11:33:16;;;;;;;5.45;2.20;;;;;;;25.76;25.25;100160.41;1785818;80;21466;-69
2023/05/30 11:35:49;;;;;;;3.75;1.77;;;;;;;25.81;24.94;100158.36;1785677;80;21077;-68
2023/05/30 11:38:20;;;;;;;4.15;1.75;;;;;;;25.75;24.56;100154.53;1785513;80;21074;-67
2023/05/30 11:40:49;;;;;;;5.55;2.17;;;;;;;25.69;24.24;100150.14;1785895;80;20982;-68
2023/05/30 11:43:18;;;;;;;9.28;3.90;;;;;;;25.71;24.32;100145.05;1785860;80;21042;-70